Terminal Aerodrome Forecast
Issued by NWS

Home | Current Version | Previous Version | Text Only | Print | Product List | Glossary On
Versions: 1 2 3 4 5 6 7 8 9 10 11 12
427
FTUS44 KLIX 251734
TAFGPT
TAF
KGPT 251734Z 2518/2618 00000KT P6SM VCTS SCT040CB
     FM260000 25004KT P6SM SCT200
     FM260300 31004KT P6SM SCT200
     FM261500 01004KT P6SM FEW250
     FM261700 08004KT P6SM SCT250=

USA.gov is the U.S. government's official web portal to all federal, state and local government web resources and services.